Données éditées le 18/07/2019 à 13:20:32Z

METAR LFBC (Cazaux) :

LFBC 181300Z AUTO 25009KT 200V290 9999 FEW044 25/11 Q1018 NOSIG

METAR LFBD (Bordeaux Merignac) :

LFBD 181300Z AUTO VRB05KT CAVOK 26/12 Q1018 NOSIG